sensor_id;sensor_type;location;lat;lon;timestamp;pressure;altitude;pressure_sealevel;temperature;humidity
4767;BME280;2397;53.576;9.746;2023-08-24T00:01:37;101863.41;;;19.36;85.53
4767;BME280;2397;53.576;9.746;2023-08-24T00:04:04;101857.56;;;19.33;85.77
4767;BME280;2397;53.576;9.746;2023-08-24T00:06:30;101857.13;;;19.29;85.89
4767;BME280;2397;53.576;9.746;2023-08-24T00:08:58;101858.31;;;19.27;85.83
4767;BME280;2397;53.576;9.746;2023-08-24T00:11:25;101858.31;;;19.27;86.13
4767;BME280;2397;53.576;9.746;2023-08-24T00:13:52;101849.31;;;19.20;85.99
4767;BME280;2397;53.576;9.746;2023-08-24T00:16:20;101850.69;;;19.16;86.08
4767;BME280;2397;53.576;9.746;2023-08-24T00:18:47;101847.34;;;19.14;86.01
4767;BME280;2397;53.576;9.746;2023-08-24T00:21:14;101852.41;;;19.09;85.63
4767;BME280;2397;53.576;9.746;2023-08-24T00:23:46;101849.22;;;19.05;86.16
4767;BME280;2397;53.576;9.746;2023-08-24T00:26:12;101845.06;;;19.03;86.12
4767;BME280;2397;53.576;9.746;2023-08-24T00:28:39;101856.16;;;19.00;86.43
4767;BME280;2397;53.576;9.746;2023-08-24T00:31:06;101848.00;;;18.93;86.40
4767;BME280;2397;53.576;9.746;2023-08-24T00:33:33;101854.38;;;18.92;86.75
4767;BME280;2397;53.576;9.746;2023-08-24T00:36:01;101854.38;;;18.92;86.31
4767;BME280;2397;53.576;9.746;2023-08-24T00:38:28;101860.25;;;18.88;86.14
4767;BME280;2397;53.576;9.746;2023-08-24T00:40:57;101842.94;;;18.76;87.14
4767;BME280;2397;53.576;9.746;2023-08-24T00:43:26;101851.81;;;18.76;87.24
4767;BME280;2397;53.576;9.746;2023-08-24T00:45:56;101846.16;;;18.71;87.48
4767;BME280;2397;53.576;9.746;2023-08-24T00:48:25;101853.53;;;18.69;87.66
4767;BME280;2397;53.576;9.746;2023-08-24T00:50:56;101857.69;;;18.72;87.33
4767;BME280;2397;53.576;9.746;2023-08-24T00:53:24;101853.38;;;18.63;87.58
4767;BME280;2397;53.576;9.746;2023-08-24T00:55:52;101846.38;;;18.62;87.90
4767;BME280;2397;53.576;9.746;2023-08-24T00:58:19;101851.06;;;18.60;87.67
4767;BME280;2397;53.576;9.746;2023-08-24T01:00:47;101847.91;;;18.56;87.30
4767;BME280;2397;53.576;9.746;2023-08-24T01:03:14;101856.09;;;18.55;87.78
4767;BME280;2397;53.576;9.746;2023-08-24T01:05:43;101855.47;;;18.53;87.41
4767;BME280;2397;53.576;9.746;2023-08-24T01:08:10;101858.81;;;18.47;87.09
4767;BME280;2397;53.576;9.746;2023-08-24T01:10:48;101855.19;;;18.40;87.79
4767;BME280;2397;53.576;9.746;2023-08-24T01:13:27;101857.22;;;18.38;87.49
4767;BME280;2397;53.576;9.746;2023-08-24T01:16:09;101868.72;;;18.30;87.43
4767;BME280;2397;53.576;9.746;2023-08-24T01:18:41;101862.91;;;18.27;88.28
4767;BME280;2397;53.576;9.746;2023-08-24T01:21:09;101854.22;;;18.25;87.96
4767;BME280;2397;53.576;9.746;2023-08-24T01:23:51;101863.72;;;18.27;88.07
4767;BME280;2397;53.576;9.746;2023-08-24T01:26:20;101862.06;;;18.26;87.89
4767;BME280;2397;53.576;9.746;2023-08-24T01:28:47;101862.09;;;18.18;87.95
4767;BME280;2397;53.576;9.746;2023-08-24T01:31:15;101865.28;;;18.14;88.38
4767;BME280;2397;53.576;9.746;2023-08-24T01:33:47;101856.59;;;18.20;88.29
4767;BME280;2397;53.576;9.746;2023-08-24T01:36:14;101870.13;;;18.18;87.74
4767;BME280;2397;53.576;9.746;2023-08-24T01:38:45;101863.59;;;18.21;87.49
4767;BME280;2397;53.576;9.746;2023-08-24T01:43:45;101874.63;;;18.18;88.04
4767;BME280;2397;53.576;9.746;2023-08-24T01:46:16;101867.16;;;18.13;88.61
4767;BME280;2397;53.576;9.746;2023-08-24T01:48:45;101868.97;;;18.13;89.24
4767;BME280;2397;53.576;9.746;2023-08-24T01:51:13;101871.13;;;18.09;89.11
4767;BME280;2397;53.576;9.746;2023-08-24T01:53:41;101861.47;;;18.08;88.86
4767;BME280;2397;53.576;9.746;2023-08-24T01:56:12;101866.16;;;18.06;88.34
4767;BME280;2397;53.576;9.746;2023-08-24T01:58:39;101857.63;;;18.03;88.25
4767;BME280;2397;53.576;9.746;2023-08-24T02:01:07;101848.97;;;18.01;88.58
4767;BME280;2397;53.576;9.746;2023-08-24T02:03:34;101846.16;;;17.94;88.95
4767;BME280;2397;53.576;9.746;2023-08-24T02:06:02;101854.69;;;17.90;89.03
4767;BME280;2397;53.576;9.746;2023-08-24T02:08:29;101848.38;;;17.83;88.81
4767;BME280;2397;53.576;9.746;2023-08-24T02:10:56;101841.53;;;17.80;88.61
4767;BME280;2397;53.576;9.746;2023-08-24T02:13:23;101845.53;;;17.84;88.41
4767;BME280;2397;53.576;9.746;2023-08-24T02:15:50;101841.00;;;17.85;88.52
4767;BME280;2397;53.576;9.746;2023-08-24T02:18:17;101840.19;;;17.76;88.27
4767;BME280;2397;53.576;9.746;2023-08-24T02:20:43;101837.72;;;17.75;88.84
4767;BME280;2397;53.576;9.746;2023-08-24T02:23:10;101835.69;;;17.77;88.15
4767;BME280;2397;53.576;9.746;2023-08-24T02:25:42;101837.88;;;17.73;88.44
4767;BME280;2397;53.576;9.746;2023-08-24T02:28:09;101833.34;;;17.74;88.72
4767;BME280;2397;53.576;9.746;2023-08-24T02:30:38;101836.72;;;17.68;89.15
4767;BME280;2397;53.576;9.746;2023-08-24T02:33:06;101837.53;;;17.68;89.04
4767;BME280;2397;53.576;9.746;2023-08-24T02:35:33;101834.38;;;17.73;88.47
4767;BME280;2397;53.576;9.746;2023-08-24T02:37:59;101831.03;;;17.63;88.45
4767;BME280;2397;53.576;9.746;2023-08-24T02:40:26;101826.38;;;17.65;88.95
4767;BME280;2397;53.576;9.746;2023-08-24T02:42:52;101824.03;;;17.70;88.53
4767;BME280;2397;53.576;9.746;2023-08-24T02:45:20;101824.88;;;17.62;88.46
4767;BME280;2397;53.576;9.746;2023-08-24T02:47:46;101825.88;;;17.53;88.64
4767;BME280;2397;53.576;9.746;2023-08-24T02:50:13;101827.41;;;17.48;89.24
4767;BME280;2397;53.576;9.746;2023-08-24T02:52:40;101833.91;;;17.45;89.07
4767;BME280;2397;53.576;9.746;2023-08-24T02:55:07;101828.41;;;17.39;89.58
4767;BME280;2397;53.576;9.746;2023-08-24T02:57:34;101817.75;;;17.47;89.75
4767;BME280;2397;53.576;9.746;2023-08-24T03:00:03;101821.72;;;17.51;89.01
4767;BME280;2397;53.576;9.746;2023-08-24T03:02:32;101824.56;;;17.49;89.00
4767;BME280;2397;53.576;9.746;2023-08-24T03:04:59;101827.88;;;17.35;89.18
4767;BME280;2397;53.576;9.746;2023-08-24T03:07:27;101825.56;;;17.24;89.48
4767;BME280;2397;53.576;9.746;2023-08-24T03:09:54;101826.25;;;17.18;89.87
4767;BME280;2397;53.576;9.746;2023-08-24T03:12:21;101824.75;;;17.16;89.81
4767;BME280;2397;53.576;9.746;2023-08-24T03:14:51;101819.91;;;17.19;90.15
4767;BME280;2397;53.576;9.746;2023-08-24T03:17:19;101821.38;;;17.30;89.57
4767;BME280;2397;53.576;9.746;2023-08-24T03:19:45;101812.91;;;17.26;89.05
4767;BME280;2397;53.576;9.746;2023-08-24T03:22:13;101813.88;;;17.17;89.35
4767;BME280;2397;53.576;9.746;2023-08-24T03:24:39;101808.38;;;17.11;89.87
4767;BME280;2397;53.576;9.746;2023-08-24T03:27:07;101812.91;;;17.10;90.01
4767;BME280;2397;53.576;9.746;2023-08-24T03:29:35;101809.88;;;17.13;89.45
4767;BME280;2397;53.576;9.746;2023-08-24T03:32:01;101813.41;;;17.14;88.90
4767;BME280;2397;53.576;9.746;2023-08-24T03:34:28;101807.22;;;17.13;89.10
4767;BME280;2397;53.576;9.746;2023-08-24T03:36:57;101808.88;;;17.06;89.48
4767;BME280;2397;53.576;9.746;2023-08-24T03:39:23;101804.56;;;17.05;89.44
4767;BME280;2397;53.576;9.746;2023-08-24T03:41:50;101805.06;;;17.09;89.60
4767;BME280;2397;53.576;9.746;2023-08-24T03:44:16;101808.56;;;17.01;89.40
4767;BME280;2397;53.576;9.746;2023-08-24T03:46:43;101801.91;;;17.05;89.67
4767;BME280;2397;53.576;9.746;2023-08-24T03:49:09;101803.75;;;17.05;89.10
4767;BME280;2397;53.576;9.746;2023-08-24T03:51:36;101805.41;;;16.98;89.26
4767;BME280;2397;53.576;9.746;2023-08-24T03:54:03;101803.41;;;16.92;89.76
4767;BME280;2397;53.576;9.746;2023-08-24T03:56:32;101799.22;;;16.89;90.11
4767;BME280;2397;53.576;9.746;2023-08-24T03:58:58;101810.38;;;17.01;89.88
4767;BME280;2397;53.576;9.746;2023-08-24T04:01:26;101813.56;;;16.96;89.30
4767;BME280;2397;53.576;9.746;2023-08-24T04:03:52;101805.22;;;16.91;89.88
4767;BME280;2397;53.576;9.746;2023-08-24T04:06:19;101801.75;;;16.91;89.95
4767;BME280;2397;53.576;9.746;2023-08-24T04:08:46;101805.06;;;16.92;89.92
4767;BME280;2397;53.576;9.746;2023-08-24T04:11:12;101801.91;;;16.97;89.53
4767;BME280;2397;53.576;9.746;2023-08-24T04:13:39;101802.38;;;17.01;88.92
4767;BME280;2397;53.576;9.746;2023-08-24T04:16:06;101796.72;;;16.88;89.15
4767;BME280;2397;53.576;9.746;2023-08-24T04:18:32;101805.91;;;16.85;89.82
4767;BME280;2397;53.576;9.746;2023-08-24T04:20:59;101797.91;;;16.85;90.11
4767;BME280;2397;53.576;9.746;2023-08-24T04:23:26;101801.75;;;16.91;89.75
4767;BME280;2397;53.576;9.746;2023-08-24T04:25:53;101785.41;;;16.94;89.25
4767;BME280;2397;53.576;9.746;2023-08-24T04:28:20;101789.06;;;16.92;88.93
4767;BME280;2397;53.576;9.746;2023-08-24T04:30:54;101800.72;;;16.83;89.10
4767;BME280;2397;53.576;9.746;2023-08-24T04:33:22;101797.22;;;16.75;89.07
4767;BME280;2397;53.576;9.746;2023-08-24T04:35:50;101795.72;;;16.64;88.98
4767;BME280;2397;53.576;9.746;2023-08-24T04:38:17;101805.19;;;16.59;89.86
4767;BME280;2397;53.576;9.746;2023-08-24T04:40:54;101799.03;;;16.50;90.07
4767;BME280;2397;53.576;9.746;2023-08-24T04:43:22;101805.34;;;16.49;90.51
4767;BME280;2397;53.576;9.746;2023-08-24T04:45:50;101812.66;;;16.47;90.91
4767;BME280;2397;53.576;9.746;2023-08-24T04:48:21;101808.03;;;16.49;91.29
4767;BME280;2397;53.576;9.746;2023-08-24T04:50:49;101819.66;;;16.48;91.22
4767;BME280;2397;53.576;9.746;2023-08-24T04:53:19;101820.34;;;16.50;90.97
4767;BME280;2397;53.576;9.746;2023-08-24T04:55:46;101813.34;;;16.49;91.47
4767;BME280;2397;53.576;9.746;2023-08-24T04:58:13;101807.34;;;16.55;91.80
4767;BME280;2397;53.576;9.746;2023-08-24T05:00:39;101813.69;;;16.62;91.67
4767;BME280;2397;53.576;9.746;2023-08-24T05:03:07;101817.19;;;16.55;91.17
4767;BME280;2397;53.576;9.746;2023-08-24T05:05:37;101821.34;;;16.57;91.29
4767;BME280;2397;53.576;9.746;2023-08-24T05:08:04;101828.66;;;16.55;92.08
4767;BME280;2397;53.576;9.746;2023-08-24T05:10:39;101826.38;;;16.60;91.97
4767;BME280;2397;53.576;9.746;2023-08-24T05:13:06;101827.19;;;16.69;91.79
4767;BME280;2397;53.576;9.746;2023-08-24T05:15:33;101835.19;;;16.69;92.10
4767;BME280;2397;53.576;9.746;2023-08-24T05:17:59;101836.56;;;16.73;92.02
4767;BME280;2397;53.576;9.746;2023-08-24T05:20:26;101835.06;;;16.78;92.25
4767;BME280;2397;53.576;9.746;2023-08-24T05:22:53;101835.19;;;16.69;92.41
4767;BME280;2397;53.576;9.746;2023-08-24T05:25:22;101831.72;;;16.68;92.67
4767;BME280;2397;53.576;9.746;2023-08-24T05:27:49;101842.38;;;16.76;92.59
4767;BME280;2397;53.576;9.746;2023-08-24T05:30:17;101846.06;;;16.75;93.61
4767;BME280;2397;53.576;9.746;2023-08-24T05:32:44;101844.72;;;16.88;92.96
4767;BME280;2397;53.576;9.746;2023-08-24T05:35:10;101842.38;;;16.92;93.01
4767;BME280;2397;53.576;9.746;2023-08-24T05:37:37;101839.06;;;16.91;92.81
4767;BME280;2397;53.576;9.746;2023-08-24T05:40:04;101834.38;;;16.92;93.03
4767;BME280;2397;53.576;9.746;2023-08-24T05:42:31;101831.41;;;16.96;93.09
4767;BME280;2397;53.576;9.746;2023-08-24T05:44:58;101835.41;;;16.92;93.22
4767;BME280;2397;53.576;9.746;2023-08-24T05:47:24;101829.22;;;16.91;93.96
4767;BME280;2397;53.576;9.746;2023-08-24T05:49:51;101828.56;;;16.97;94.25
4767;BME280;2397;53.576;9.746;2023-08-24T05:52:18;101833.41;;;16.94;94.78
4767;BME280;2397;53.576;9.746;2023-08-24T05:54:44;101837.75;;;17.03;95.47
4767;BME280;2397;53.576;9.746;2023-08-24T05:57:11;101841.72;;;17.15;95.97
4767;BME280;2397;53.576;9.746;2023-08-24T05:59:37;101829.56;;;17.28;95.59
4767;BME280;2397;53.576;9.746;2023-08-24T06:02:04;101831.41;;;17.44;95.14
4767;BME280;2397;53.576;9.746;2023-08-24T06:04:31;101833.75;;;17.47;95.45
4767;BME280;2397;53.576;9.746;2023-08-24T06:06:57;101831.41;;;17.52;95.44
4767;BME280;2397;53.576;9.746;2023-08-24T06:09:24;101828.38;;;17.63;95.37
4767;BME280;2397;53.576;9.746;2023-08-24T06:11:51;101829.00;;;17.81;95.46
4767;BME280;2397;53.576;9.746;2023-08-24T06:14:17;101820.94;;;17.89;95.35
4767;BME280;2397;53.576;9.746;2023-08-24T06:16:44;101812.22;;;18.03;95.55
4767;BME280;2397;53.576;9.746;2023-08-24T06:19:10;101810.19;;;18.13;95.61
4767;BME280;2397;53.576;9.746;2023-08-24T06:21:37;101813.97;;;18.26;94.92
4767;BME280;2397;53.576;9.746;2023-08-24T06:24:03;101800.22;;;18.37;94.20
4767;BME280;2397;53.576;9.746;2023-08-24T06:26:30;101798.81;;;18.49;93.82
4767;BME280;2397;53.576;9.746;2023-08-24T06:28:56;101801.31;;;18.51;93.55
4767;BME280;2397;53.576;9.746;2023-08-24T06:31:23;101798.25;;;18.62;93.09
4767;BME280;2397;53.576;9.746;2023-08-24T06:33:50;101783.66;;;18.72;93.03
4767;BME280;2397;53.576;9.746;2023-08-24T06:36:16;101787.06;;;18.81;90.35
4767;BME280;2397;53.576;9.746;2023-08-24T06:38:43;101793.69;;;18.93;87.64
4767;BME280;2397;53.576;9.746;2023-08-24T06:41:09;101784.56;;;19.02;87.28
4767;BME280;2397;53.576;9.746;2023-08-24T06:43:39;101782.22;;;18.99;87.35
4767;BME280;2397;53.576;9.746;2023-08-24T06:46:06;101785.25;;;18.96;88.55
4767;BME280;2397;53.576;9.746;2023-08-24T06:48:36;101776.31;;;18.89;87.05
4767;BME280;2397;53.576;9.746;2023-08-24T06:51:03;101772.09;;;18.94;87.14
4767;BME280;2397;53.576;9.746;2023-08-24T06:53:30;101773.00;;;19.01;87.33
4767;BME280;2397;53.576;9.746;2023-08-24T06:55:57;101770.47;;;19.08;85.37
4767;BME280;2397;53.576;9.746;2023-08-24T06:58:24;101760.69;;;19.15;85.08
4767;BME280;2397;53.576;9.746;2023-08-24T07:00:50;101761.94;;;19.27;86.06
4767;BME280;2397;53.576;9.746;2023-08-24T07:03:18;101764.53;;;19.35;85.64
4767;BME280;2397;53.576;9.746;2023-08-24T07:05:47;101766.19;;;19.36;84.45
4767;BME280;2397;53.576;9.746;2023-08-24T07:08:13;101770.25;;;19.32;84.36
4767;BME280;2397;53.576;9.746;2023-08-24T07:10:42;101769.44;;;19.31;85.15
4767;BME280;2397;53.576;9.746;2023-08-24T07:13:09;101777.34;;;19.25;85.66
4767;BME280;2397;53.576;9.746;2023-08-24T07:15:36;101778.94;;;19.34;85.97
4767;BME280;2397;53.576;9.746;2023-08-24T07:18:03;101775.06;;;19.51;85.49
4767;BME280;2397;53.576;9.746;2023-08-24T07:20:32;101777.75;;;19.51;84.99
4767;BME280;2397;53.576;9.746;2023-08-24T07:22:59;101778.31;;;19.61;84.61
4767;BME280;2397;53.576;9.746;2023-08-24T07:25:25;101759.19;;;19.64;83.14
4767;BME280;2397;53.576;9.746;2023-08-24T07:27:54;101764.34;;;19.80;83.58
4767;BME280;2397;53.576;9.746;2023-08-24T07:30:27;101768.63;;;19.89;83.13
4767;BME280;2397;53.576;9.746;2023-08-24T07:33:01;101765.75;;;19.90;81.49
4767;BME280;2397;53.576;9.746;2023-08-24T07:35:29;101757.72;;;19.76;78.66
4767;BME280;2397;53.576;9.746;2023-08-24T07:37:56;101759.00;;;19.80;79.31
4767;BME280;2397;53.576;9.746;2023-08-24T07:40:23;101765.47;;;19.85;78.66
4767;BME280;2397;53.576;9.746;2023-08-24T07:42:51;101767.00;;;20.09;80.56
4767;BME280;2397;53.576;9.746;2023-08-24T07:45:23;101759.16;;;20.08;77.30
4767;BME280;2397;53.576;9.746;2023-08-24T07:47:50;101769.41;;;20.19;77.98
4767;BME280;2397;53.576;9.746;2023-08-24T07:50:17;101766.72;;;20.33;78.39
4767;BME280;2397;53.576;9.746;2023-08-24T07:52:43;101766.72;;;20.54;79.95
4767;BME280;2397;53.576;9.746;2023-08-24T07:55:10;101755.28;;;20.46;75.93
4767;BME280;2397;53.576;9.746;2023-08-24T07:57:37;101758.22;;;20.51;75.38
4767;BME280;2397;53.576;9.746;2023-08-24T08:00:05;101748.25;;;20.45;72.43
4767;BME280;2397;53.576;9.746;2023-08-24T08:02:41;101743.00;;;20.37;72.09
4767;BME280;2397;53.576;9.746;2023-08-24T08:05:08;101738.94;;;20.41;71.68
4767;BME280;2397;53.576;9.746;2023-08-24T08:07:36;101730.31;;;20.45;72.75
4767;BME280;2397;53.576;9.746;2023-08-24T08:10:04;101730.06;;;20.40;73.83
4767;BME280;2397;53.576;9.746;2023-08-24T08:12:30;101728.13;;;20.34;72.95
4767;BME280;2397;53.576;9.746;2023-08-24T08:14:59;101725.47;;;20.34;71.91
4767;BME280;2397;53.576;9.746;2023-08-24T08:17:26;101733.38;;;20.42;73.56
4767;BME280;2397;53.576;9.746;2023-08-24T08:19:55;101721.00;;;20.41;70.49
4767;BME280;2397;53.576;9.746;2023-08-24T08:22:22;101723.19;;;20.52;69.57
4767;BME280;2397;53.576;9.746;2023-08-24T08:24:48;101715.94;;;20.53;69.77
4767;BME280;2397;53.576;9.746;2023-08-24T08:27:16;101716.06;;;20.45;68.41
4767;BME280;2397;53.576;9.746;2023-08-24T08:29:42;101715.38;;;20.57;70.70
4767;BME280;2397;53.576;9.746;2023-08-24T08:32:09;101706.81;;;20.68;66.12
4767;BME280;2397;53.576;9.746;2023-08-24T08:34:38;101707.69;;;20.75;66.23
4767;BME280;2397;53.576;9.746;2023-08-24T08:37:04;101717.78;;;20.73;66.82
4767;BME280;2397;53.576;9.746;2023-08-24T08:39:32;101731.13;;;20.88;70.35
4767;BME280;2397;53.576;9.746;2023-08-24T08:41:58;101725.31;;;21.05;69.84
4767;BME280;2397;53.576;9.746;2023-08-24T08:44:30;101718.56;;;20.88;67.83
4767;BME280;2397;53.576;9.746;2023-08-24T08:46:58;101720.66;;;20.93;69.59
4767;BME280;2397;53.576;9.746;2023-08-24T08:49:25;101717.72;;;21.09;72.45
4767;BME280;2397;53.576;9.746;2023-08-24T08:51:52;101719.94;;;21.05;69.67
4767;BME280;2397;53.576;9.746;2023-08-24T08:54:19;101718.66;;;21.01;69.66
4767;BME280;2397;53.576;9.746;2023-08-24T08:56:46;101729.75;;;21.19;71.20
4767;BME280;2397;53.576;9.746;2023-08-24T08:59:14;101733.72;;;21.30;70.43
4767;BME280;2397;53.576;9.746;2023-08-24T09:01:41;101711.28;;;21.37;71.66
4767;BME280;2397;53.576;9.746;2023-08-24T09:04:08;101708.81;;;21.42;69.74
4767;BME280;2397;53.576;9.746;2023-08-24T09:06:34;101712.44;;;21.28;69.79
4767;BME280;2397;53.576;9.746;2023-08-24T09:09:01;101724.22;;;21.27;70.53
4767;BME280;2397;53.576;9.746;2023-08-24T09:11:28;101724.38;;;21.19;69.48
4767;BME280;2397;53.576;9.746;2023-08-24T09:13:54;101726.22;;;21.19;68.39
4767;BME280;2397;53.576;9.746;2023-08-24T09:16:21;101729.59;;;21.27;68.95
4767;BME280;2397;53.576;9.746;2023-08-24T09:18:48;101725.88;;;21.28;67.80
4767;BME280;2397;53.576;9.746;2023-08-24T09:21:15;101719.44;;;21.23;67.02
4767;BME280;2397;53.576;9.746;2023-08-24T09:26:31;101723.31;;;21.14;67.35
4767;BME280;2397;53.576;9.746;2023-08-24T09:28:59;101732.44;;;21.19;67.23
4767;BME280;2397;53.576;9.746;2023-08-24T09:31:36;101727.94;;;21.26;67.03
4767;BME280;2397;53.576;9.746;2023-08-24T09:34:03;101727.75;;;21.28;67.23
4767;BME280;2397;53.576;9.746;2023-08-24T09:36:33;101717.16;;;21.20;66.91
4767;BME280;2397;53.576;9.746;2023-08-24T09:39:00;101735.34;;;21.24;68.61
4767;BME280;2397;53.576;9.746;2023-08-24T09:41:46;101731.50;;;21.33;69.38
4767;BME280;2397;53.576;9.746;2023-08-24T09:44:13;101718.09;;;21.40;70.57
4767;BME280;2397;53.576;9.746;2023-08-24T09:46:40;101705.78;;;21.52;69.63
4767;BME280;2397;53.576;9.746;2023-08-24T09:49:08;101709.50;;;21.51;68.30
4767;BME280;2397;53.576;9.746;2023-08-24T09:51:36;101712.38;;;21.49;69.27
4767;BME280;2397;53.576;9.746;2023-08-24T09:54:10;101700.22;;;21.60;68.64
4767;BME280;2397;53.576;9.746;2023-08-24T09:56:39;101698.97;;;21.56;68.55
4767;BME280;2397;53.576;9.746;2023-08-24T09:59:13;101695.09;;;21.58;68.71
4767;BME280;2397;53.576;9.746;2023-08-24T10:01:44;101685.72;;;21.54;68.90
4767;BME280;2397;53.576;9.746;2023-08-24T10:04:16;101689.94;;;21.63;69.74
4767;BME280;2397;53.576;9.746;2023-08-24T10:06:47;101674.66;;;21.70;70.15
4767;BME280;2397;53.576;9.746;2023-08-24T10:09:21;101690.66;;;21.85;71.17
4767;BME280;2397;53.576;9.746;2023-08-24T10:11:53;101674.16;;;21.94;67.75
4767;BME280;2397;53.576;9.746;2023-08-24T10:14:24;101674.59;;;22.04;67.27
4767;BME280;2397;53.576;9.746;2023-08-24T10:16:53;101673.34;;;21.94;66.48
4767;BME280;2397;53.576;9.746;2023-08-24T10:19:20;101678.50;;;21.95;67.84
4767;BME280;2397;53.576;9.746;2023-08-24T10:21:49;101673.34;;;22.00;67.73
4767;BME280;2397;53.576;9.746;2023-08-24T10:24:18;101651.44;;;22.16;68.59
4767;BME280;2397;53.576;9.746;2023-08-24T10:26:47;101632.25;;;22.39;65.99
4767;BME280;2397;53.576;9.746;2023-08-24T10:29:16;101620.03;;;22.36;66.56
4767;BME280;2397;53.576;9.746;2023-08-24T10:31:44;101621.28;;;22.47;66.61
4767;BME280;2397;53.576;9.746;2023-08-24T10:34:11;101621.31;;;22.66;66.40
4767;BME280;2397;53.576;9.746;2023-08-24T10:36:39;101622.13;;;22.73;65.49
4767;BME280;2397;53.576;9.746;2023-08-24T10:39:06;101616.31;;;22.83;66.06
4767;BME280;2397;53.576;9.746;2023-08-24T10:41:59;101619.41;;;22.80;65.79
4767;BME280;2397;53.576;9.746;2023-08-24T10:44:37;101610.91;;;22.96;65.94
4767;BME280;2397;53.576;9.746;2023-08-24T10:47:20;101614.00;;;22.99;64.91
4767;BME280;2397;53.576;9.746;2023-08-24T10:52:32;101589.84;;;23.44;61.65
4767;BME280;2397;53.576;9.746;2023-08-24T10:55:03;101601.41;;;23.57;62.60
4767;BME280;2397;53.576;9.746;2023-08-24T10:57:38;101594.91;;;23.71;60.16
4767;BME280;2397;53.576;9.746;2023-08-24T11:00:06;101585.19;;;24.01;58.82
4767;BME280;2397;53.576;9.746;2023-08-24T11:02:43;101589.47;;;24.40;59.46
4767;BME280;2397;53.576;9.746;2023-08-24T11:08:08;101577.41;;;24.85;56.52
4767;BME280;2397;53.576;9.746;2023-08-24T11:15:45;101540.06;;;24.82;55.14
4767;BME280;2397;53.576;9.746;2023-08-24T11:18:24;101533.38;;;25.02;54.30
4767;BME280;2397;53.576;9.746;2023-08-24T11:21:00;101545.97;;;25.26;55.92
4767;BME280;2397;53.576;9.746;2023-08-24T11:23:27;101532.72;;;25.54;55.20
4767;BME280;2397;53.576;9.746;2023-08-24T11:25:55;101525.75;;;25.47;53.93
4767;BME280;2397;53.576;9.746;2023-08-24T11:28:25;101523.63;;;25.37;54.04
4767;BME280;2397;53.576;9.746;2023-08-24T11:30:53;101526.16;;;25.32;53.08
4767;BME280;2397;53.576;9.746;2023-08-24T11:33:27;101527.78;;;25.51;53.47
4767;BME280;2397;53.576;9.746;2023-08-24T11:35:55;101518.41;;;25.65;51.72
4767;BME280;2397;53.576;9.746;2023-08-24T11:38:22;101511.13;;;25.96;51.72
4767;BME280;2397;53.576;9.746;2023-08-24T11:40:48;101505.38;;;26.04;52.17
4767;BME280;2397;53.576;9.746;2023-08-24T11:43:24;101502.53;;;26.33;52.31
4767;BME280;2397;53.576;9.746;2023-08-24T11:45:54;101482.28;;;26.59;52.00
4767;BME280;2397;53.576;9.746;2023-08-24T11:48:27;101464.75;;;26.50;50.33
4767;BME280;2397;53.576;9.746;2023-08-24T11:50:57;101490.53;;;26.52;53.80
4767;BME280;2397;53.576;9.746;2023-08-24T11:53:25;101455.91;;;26.77;51.71
4767;BME280;2397;53.576;9.746;2023-08-24T11:55:53;101444.88;;;26.95;49.93
4767;BME280;2397;53.576;9.746;2023-08-24T11:58:31;101441.84;;;26.92;50.59
4767;BME280;2397;53.576;9.746;2023-08-24T12:00:58;101433.09;;;27.01;50.24
4767;BME280;2397;53.576;9.746;2023-08-24T12:03:25;101420.38;;;27.18;50.51
4767;BME280;2397;53.576;9.746;2023-08-24T12:05:52;101422.53;;;27.16;49.92
4767;BME280;2397;53.576;9.746;2023-08-24T12:08:18;101401.56;;;27.23;48.59
4767;BME280;2397;53.576;9.746;2023-08-24T12:10:45;101404.84;;;27.25;48.88
4767;BME280;2397;53.576;9.746;2023-08-24T12:13:12;101413.00;;;27.58;49.29
4767;BME280;2397;53.576;9.746;2023-08-24T12:15:40;101406.44;;;27.87;47.77
4767;BME280;2397;53.576;9.746;2023-08-24T12:18:12;101395.47;;;28.15;46.83
4767;BME280;2397;53.576;9.746;2023-08-24T12:20:40;101403.84;;;28.30;46.63
4767;BME280;2397;53.576;9.746;2023-08-24T12:23:09;101397.13;;;28.16;47.08
4767;BME280;2397;53.576;9.746;2023-08-24T12:25:45;101397.38;;;28.36;46.32
4767;BME280;2397;53.576;9.746;2023-08-24T12:28:13;101395.50;;;28.37;47.08
4767;BME280;2397;53.576;9.746;2023-08-24T12:30:51;101386.06;;;28.23;45.54
4767;BME280;2397;53.576;9.746;2023-08-24T12:33:25;101400.47;;;28.23;46.90
4767;BME280;2397;53.576;9.746;2023-08-24T12:35:53;101403.00;;;28.30;48.47
4767;BME280;2397;53.576;9.746;2023-08-24T12:38:23;101403.88;;;28.14;48.89
4767;BME280;2397;53.576;9.746;2023-08-24T12:40:51;101397.16;;;27.83;48.10
4767;BME280;2397;53.576;9.746;2023-08-24T12:43:18;101389.50;;;27.80;48.25
4767;BME280;2397;53.576;9.746;2023-08-24T12:45:44;101380.78;;;27.78;48.49
4767;BME280;2397;53.576;9.746;2023-08-24T12:48:11;101379.66;;;27.74;49.92
4767;BME280;2397;53.576;9.746;2023-08-24T12:50:38;101360.22;;;27.82;48.61
4767;BME280;2397;53.576;9.746;2023-08-24T12:53:05;101364.88;;;28.03;50.54
4767;BME280;2397;53.576;9.746;2023-08-24T12:55:38;101339.22;;;28.32;49.67
4767;BME280;2397;53.576;9.746;2023-08-24T12:58:04;101335.38;;;28.71;48.67
4767;BME280;2397;53.576;9.746;2023-08-24T13:00:32;101327.91;;;28.88;47.99
4767;BME280;2397;53.576;9.746;2023-08-24T13:02:58;101310.91;;;28.71;46.17
4767;BME280;2397;53.576;9.746;2023-08-24T13:05:25;101312.28;;;29.01;46.48
4767;BME280;2397;53.576;9.746;2023-08-24T13:07:51;101311.81;;;28.82;44.99
4767;BME280;2397;53.576;9.746;2023-08-24T13:10:18;101308.09;;;28.88;45.79
4767;BME280;2397;53.576;9.746;2023-08-24T13:12:45;101317.84;;;28.84;46.81
4767;BME280;2397;53.576;9.746;2023-08-24T13:15:12;101311.22;;;29.33;46.37
4767;BME280;2397;53.576;9.746;2023-08-24T13:17:38;101313.09;;;29.59;46.26
4767;BME280;2397;53.576;9.746;2023-08-24T13:20:05;101293.66;;;29.51;44.86
4767;BME280;2397;53.576;9.746;2023-08-24T13:22:33;101292.38;;;29.58;44.54
4767;BME280;2397;53.576;9.746;2023-08-24T13:24:59;101294.06;;;29.28;44.27
4767;BME280;2397;53.576;9.746;2023-08-24T13:27:26;101293.66;;;29.51;45.12
4767;BME280;2397;53.576;9.746;2023-08-24T13:29:52;101287.97;;;29.16;44.32
4767;BME280;2397;53.576;9.746;2023-08-24T13:32:23;101296.13;;;28.89;45.32